Mitchell, IN (47446)

7:40 AM EST on February 06, 2016 (GMT -0500)
yockey | | Change Station
CLOSE
Current Station
Personal Weather Station
Location: Mitchell, IN
Elevation: 654 ft
Nearby Weather Stations
Active Advisory: Flood Warning

Elev 654 ft 38.79 °N, 86.50 °W | Updated 48 seconds ago

Partly Cloudy
Partly Cloudy
19.1 °F
Feels Like 19 °F
N
1.0
Wind Variable Wind from NNW
Gusts 1.0 mph

Today
High -- | Low -- °F
--% Chance of Precip.
Yesterday
High -- | Low -- °F
Precip. -- in
Pressure 30.35 in
Visibility 7.0 miles
Clouds Clear
Windchill 19 °F
Dew Point 17 °F
Humidity 90%
Rainfall 0.00 in
Snow Depth Not available.
7:47 AM 6:12 PM
Waning Crescent, 6% visible
METAR KBMG 061153Z 00000KT 7SM CLR M06/M08 A3032 RMK AO2 SLP277 I1000 I6001 T10611083 11056 21067 58002
Pressure 30.35 in
Visibility 7.0 miles
Clouds Clear
Windchill 19 °F
Dew Point 17 °F
Humidity 90%
Rainfall 0.00 in
Snow Depth Not available.
7:47 AM 6:12 PM
Waning Crescent, 6% visible
METAR KBMG 061153Z 00000KT 7SM CLR M06/M08 A3032 RMK AO2 SLP277 I1000 I6001 T10611083 11056 21067 58002

10-Day Weather Forecast

Almanac

Astronomy

Feb. 06, 2016 Rise Set
Actual Time
Civil Twilight
Nautical Twilight
Astronomical Twilight
Moon
Length of Visible Light
Length of Day
Tomorrow will be .
, % of the Moon is Illuminated

Today's Extremes

State Highs State Lows

Community

WunderPhotos

Upload Photos

1,890,950 photos uploaded!

WunderBlog® & News

Nearby

Air Quality

  Air Quality AQ Index Pollutant
Not available.

Snow Depth

Station Depth Elevation

Earthquake Activity

City Distance Mag. Time & Date
Minimum magnitude displayed is 2.5.

Coastal Water Temperatures

Place Temperature

Stations

Nearby Weather Stations

Station Location Temp. Windchill Dew Point Humidity Wind Precip. Elev Updated Type
                   

Watches & Warnings

Flood Warning
Issued: 11:36 AM EST Feb. 5, 2016 – National Weather Service

The Flood Warning continues for
the muscatatuck river at Wheeler Hollow.
* Until Tuesday evening.
* At 4:30 PM Thursday the stage was 18.1 feet.
* Flood stage is 16.0 feet.
* Minor flooding is occurring and minor flooding is forecast.
* Forecast... the river will continue rising to near 19.8 feet by
tomorrow early afternoon. The river will fall below flood stage
Tuesday early afternoon.
* At 20.0 feet... high water is noticed along the river. Flood waters
in a few backyards. A few roads are flooded.


Lat... Lon 3878 8591 3878 8603 3880 8615 3876 8618
      3873 8605 3874 8591